Time;durP1;ratioP1;P1;durP2;ratioP2;P2;SDS_P1;SDS_P2;PMS_P1;PMS_P2;Temp;Humidity;BMP_temperature;BMP_pressure;BME280_temperature;BME280_humidity;BME280_pressure;Samples;Min_cycle;Max_cycle;Signal;HPM_P1;HPM_P2
2023/06/16 00:00:50;;;;;;;;;10.00;10.00;;;;;;;;4973096;28;45451;-70
2023/06/16 00:03:16;;;;;;;;;11.00;10.00;;;;;;;;4963207;28;45388;-70
2023/06/16 00:05:43;;;;;;;;;15.00;12.50;;;;;;;;4966955;28;45504;-70
2023/06/16 00:08:09;;;;;;;;;14.25;12.50;;;;;;;;4970064;28;47523;-70
2023/06/16 00:10:34;;;;;;;;;25.00;23.00;;;;;;;;4960027;28;45506;-70
2023/06/16 00:12:59;;;;;;;;;25.00;21.00;;;;;;;;4972334;28;45402;-71
2023/06/16 00:15:25;;;;;;;;;24.75;22.50;;;;;;;;4962801;28;45498;-71
2023/06/16 00:17:50;;;;;;;;;27.25;23.75;;;;;;;;4965426;28;47119;-71
2023/06/16 00:20:19;;;;;;;;;24.50;22.25;;;;;;;;4970726;28;45507;-70
2023/06/16 00:22:47;;;;;;;;;21.25;20.25;;;;;;;;4960248;28;45498;-71
2023/06/16 00:25:12;;;;;;;;;18.00;18.00;;;;;;;;4970376;28;45520;-71
2023/06/16 00:27:37;;;;;;;;;16.75;14.00;;;;;;;;4965380;28;46589;-70
2023/06/16 00:30:03;;;;;;;;;15.75;15.00;;;;;;;;4975864;28;45592;-70
2023/06/16 00:32:29;;;;;;;;;13.50;13.50;;;;;;;;4960406;28;45468;-71
2023/06/16 00:34:54;;;;;;;;;19.00;18.00;;;;;;;;4970887;28;45554;-70
2023/06/16 00:37:19;;;;;;;;;18.00;17.25;;;;;;;;4962816;28;47152;-71
2023/06/16 00:39:44;;;;;;;;;19.25;16.25;;;;;;;;4965822;28;45699;-71
2023/06/16 00:42:10;;;;;;;;;22.00;20.50;;;;;;;;4969556;28;45354;-71
2023/06/16 00:44:35;;;;;;;;;18.25;16.00;;;;;;;;4974926;28;45380;-71
2023/06/16 00:47:01;;;;;;;;;19.25;17.50;;;;;;;;4960353;28;46191;-70
2023/06/16 00:49:26;;;;;;;;;15.75;14.50;;;;;;;;4967952;28;45389;-71
2023/06/16 00:51:52;;;;;;;;;14.50;14.50;;;;;;;;4966596;28;45358;-71
2023/06/16 00:54:17;;;;;;;;;17.75;16.25;;;;;;;;4961331;28;45386;-71
2023/06/16 00:56:43;;;;;;;;;17.25;17.25;;;;;;;;4975194;28;46388;-71
2023/06/16 00:59:09;;;;;;;;;22.25;18.50;;;;;;;;4976050;28;45454;-71
2023/06/16 01:01:34;;;;;;;;;20.75;19.00;;;;;;;;4976140;28;45408;-71
2023/06/16 01:04:00;;;;;;;;;18.50;18.50;;;;;;;;4976445;28;45535;-71
2023/06/16 01:06:25;;;;;;;;;14.50;14.50;;;;;;;;4975895;28;46164;-71
2023/06/16 01:08:54;;;;;;;;;16.25;16.25;;;;;;;;4976021;28;45601;-70
2023/06/16 01:11:43;;;;;;;;;16.25;14.50;;;;;;;;4976051;28;45380;-70
2023/06/16 01:14:08;;;;;;;;;22.00;16.25;;;;;;;;4973044;28;45461;-70
2023/06/16 01:16:35;;;;;;;;;16.75;15.75;;;;;;;;4975685;28;46990;-71
2023/06/16 01:19:03;;;;;;;;;15.50;15.25;;;;;;;;4973448;28;45495;-70
2023/06/16 01:21:41;;;;;;;;;15.50;15.50;;;;;;;;4968229;28;45337;-70
2023/06/16 01:24:13;;;;;;;;;16.50;15.50;;;;;;;;4965727;28;45410;-71
2023/06/16 01:26:40;;;;;;;;;19.25;19.25;;;;;;;;4966644;28;47064;-72
2023/06/16 01:29:08;;;;;;;;;15.75;13.25;;;;;;;;4965267;28;45384;-71
2023/06/16 01:31:34;;;;;;;;;20.50;20.00;;;;;;;;4974879;28;45408;-71
2023/06/16 01:34:01;;;;;;;;;17.25;17.25;;;;;;;;4975568;28;45834;-71
2023/06/16 01:36:30;;;;;;;;;18.75;18.00;;;;;;;;4957390;28;47412;-71
2023/06/16 01:38:56;;;;;;;;;17.25;17.25;;;;;;;;4975088;28;45404;-71
2023/06/16 01:41:21;;;;;;;;;21.00;17.75;;;;;;;;4973313;28;45413;-71
2023/06/16 01:43:47;;;;;;;;;14.75;14.25;;;;;;;;4974641;28;45313;-71
2023/06/16 01:46:13;;;;;;;;;14.25;14.25;;;;;;;;4973572;28;47897;-71
2023/06/16 01:48:39;;;;;;;;;15.25;14.00;;;;;;;;4975565;28;45579;-71
2023/06/16 01:51:04;;;;;;;;;14.25;14.00;;;;;;;;4974147;28;45467;-71
2023/06/16 01:53:30;;;;;;;;;14.75;12.50;;;;;;;;4975778;28;45460;-70
2023/06/16 01:55:55;;;;;;;;;15.50;11.75;;;;;;;;4974223;28;45561;-71
2023/06/16 01:58:22;;;;;;;;;13.00;13.00;;;;;;;;4975438;28;45341;-70
2023/06/16 02:00:50;;;;;;;;;14.25;12.75;;;;;;;;4975422;28;45617;-71
2023/06/16 02:03:19;;;;;;;;;14.00;13.25;;;;;;;;4975289;28;45262;-70
2023/06/16 02:05:47;;;;;;;;;11.50;11.50;;;;;;;;4974874;28;47033;-71
2023/06/16 02:08:14;;;;;;;;;13.75;12.25;;;;;;;;4975229;28;45522;-71
2023/06/16 02:10:39;;;;;;;;;10.75;10.75;;;;;;;;4974959;28;45448;-71
2023/06/16 02:13:05;;;;;;;;;11.50;11.50;;;;;;;;4974615;28;45483;-71
2023/06/16 02:15:32;;;;;;;;;13.75;12.50;;;;;;;;4974132;28;45981;-71
2023/06/16 02:17:58;;;;;;;;;13.75;13.25;;;;;;;;4974119;28;45437;-71
2023/06/16 02:20:24;;;;;;;;;9.50;9.50;;;;;;;;4974434;28;45487;-71
2023/06/16 02:22:50;;;;;;;;;14.50;11.50;;;;;;;;4974468;28;45616;-71
2023/06/16 02:25:15;;;;;;;;;10.00;10.00;;;;;;;;4974571;28;46228;-70
2023/06/16 02:27:40;;;;;;;;;11.25;9.75;;;;;;;;4974983;28;45382;-71
2023/06/16 02:30:06;;;;;;;;;10.75;10.00;;;;;;;;4975106;28;45381;-71
2023/06/16 02:32:34;;;;;;;;;14.50;11.75;;;;;;;;4974820;28;45372;-71
2023/06/16 02:35:00;;;;;;;;;17.75;15.00;;;;;;;;4974845;28;46415;-71
2023/06/16 02:37:27;;;;;;;;;14.00;13.50;;;;;;;;4974421;28;45393;-71
2023/06/16 02:39:52;;;;;;;;;16.25;14.50;;;;;;;;4974605;28;45413;-71
2023/06/16 02:42:17;;;;;;;;;15.00;12.25;;;;;;;;4975128;28;45483;-71
2023/06/16 02:44:42;;;;;;;;;16.25;13.75;;;;;;;;4974256;28;45472;-71
2023/06/16 02:47:08;;;;;;;;;11.25;11.25;;;;;;;;4974710;28;45425;-70
2023/06/16 02:49:33;;;;;;;;;14.00;14.00;;;;;;;;4974825;28;45416;-70
2023/06/16 02:51:58;;;;;;;;;16.25;15.25;;;;;;;;4973559;28;45457;-71
2023/06/16 02:54:23;;;;;;;;;20.00;15.75;;;;;;;;4974061;28;46176;-71
2023/06/16 02:56:48;;;;;;;;;21.50;18.00;;;;;;;;4974578;28;45405;-70
2023/06/16 02:59:14;;;;;;;;;14.25;13.75;;;;;;;;4974704;28;45346;-71
2023/06/16 03:01:39;;;;;;;;;12.50;12.25;;;;;;;;4973294;28;45511;-71
2023/06/16 03:04:04;;;;;;;;;17.50;15.25;;;;;;;;4973422;28;46358;-71
2023/06/16 03:06:34;;;;;;;;;15.75;15.75;;;;;;;;4972943;28;45789;-71
2023/06/16 03:08:59;;;;;;;;;13.75;13.50;;;;;;;;4974396;28;45428;-71
2023/06/16 03:11:24;;;;;;;;;16.50;13.75;;;;;;;;4974492;28;45481;-71
2023/06/16 03:13:50;;;;;;;;;11.25;11.25;;;;;;;;4974375;28;47147;-71
2023/06/16 03:16:16;;;;;;;;;15.00;15.00;;;;;;;;4972887;28;45378;-71
2023/06/16 03:18:42;;;;;;;;;14.75;13.75;;;;;;;;4974327;28;45339;-71
2023/06/16 03:21:07;;;;;;;;;19.25;17.50;;;;;;;;4974006;28;45494;-70
2023/06/16 03:23:32;;;;;;;;;21.75;18.75;;;;;;;;4972298;28;46215;-71
2023/06/16 03:25:58;;;;;;;;;21.75;17.00;;;;;;;;4974081;28;45456;-71
2023/06/16 03:28:23;;;;;;;;;11.50;11.50;;;;;;;;4973886;28;45462;-71
2023/06/16 03:30:52;;;;;;;;;13.00;12.50;;;;;;;;4974108;28;45445;-70
2023/06/16 03:33:17;;;;;;;;;15.25;13.75;;;;;;;;4973931;28;45417;-71
2023/06/16 03:35:44;;;;;;;;;15.00;13.25;;;;;;;;4973479;28;45409;-71
2023/06/16 03:38:09;;;;;;;;;14.75;13.50;;;;;;;;4973648;28;45397;-71
2023/06/16 03:40:34;;;;;;;;;9.75;9.75;;;;;;;;4973621;28;45282;-71
2023/06/16 03:43:02;;;;;;;;;9.75;9.75;;;;;;;;4973102;28;47330;-70
2023/06/16 03:45:27;;;;;;;;;15.25;13.00;;;;;;;;4954317;28;45321;-71
2023/06/16 03:47:52;;;;;;;;;10.75;10.50;;;;;;;;4961735;28;45299;-71
2023/06/16 03:50:17;;;;;;;;;12.25;10.50;;;;;;;;4973576;28;45385;-71
2023/06/16 03:52:43;;;;;;;;;12.25;10.75;;;;;;;;4973236;28;45362;-71
2023/06/16 03:55:08;;;;;;;;;15.75;13.75;;;;;;;;4973621;28;45269;-71
2023/06/16 03:57:33;;;;;;;;;12.75;12.75;;;;;;;;4974027;28;45301;-71
2023/06/16 03:59:58;;;;;;;;;15.00;14.00;;;;;;;;4972393;28;45646;-71
2023/06/16 04:02:23;;;;;;;;;11.50;10.75;;;;;;;;4974038;28;45397;-71
2023/06/16 04:04:51;;;;;;;;;11.50;10.25;;;;;;;;4976786;28;45454;-71
2023/06/16 04:07:17;;;;;;;;;20.00;16.00;;;;;;;;4977461;28;45393;-71
2023/06/16 04:09:42;;;;;;;;;16.25;13.00;;;;;;;;4976807;28;45794;-71
2023/06/16 04:12:07;;;;;;;;;12.25;12.25;;;;;;;;4976217;28;47210;-71
2023/06/16 04:14:33;;;;;;;;;16.75;13.75;;;;;;;;4976825;28;45493;-71
2023/06/16 04:16:58;;;;;;;;;14.75;13.75;;;;;;;;4977021;28;45415;-70
2023/06/16 04:19:26;;;;;;;;;17.25;16.00;;;;;;;;4976848;28;45483;-70
2023/06/16 04:21:51;;;;;;;;;15.75;12.50;;;;;;;;4976726;28;47132;-70
2023/06/16 04:24:17;;;;;;;;;13.25;12.00;;;;;;;;4976762;28;45483;-70
2023/06/16 04:26:42;;;;;;;;;15.00;14.25;;;;;;;;4976943;28;45421;-71
2023/06/16 04:29:08;;;;;;;;;11.50;10.75;;;;;;;;4976582;28;45475;-70
2023/06/16 04:31:35;;;;;;;;;12.50;12.50;;;;;;;;4976624;28;45516;-70
2023/06/16 04:34:03;;;;;;;;;17.25;15.75;;;;;;;;4976650;28;45458;-70
2023/06/16 04:36:29;;;;;;;;;15.00;13.75;;;;;;;;4976663;28;45416;-70
2023/06/16 04:38:55;;;;;;;;;14.50;13.25;;;;;;;;4975116;28;45365;-70
2023/06/16 04:41:20;;;;;;;;;13.75;13.75;;;;;;;;4976080;28;45547;-71
2023/06/16 04:43:45;;;;;;;;;15.75;14.25;;;;;;;;4976243;28;45390;-70
2023/06/16 04:46:11;;;;;;;;;16.50;16.50;;;;;;;;4976533;28;45321;-71
2023/06/16 04:48:37;;;;;;;;;18.25;15.25;;;;;;;;4976030;28;45564;-70
2023/06/16 04:51:02;;;;;;;;;18.50;17.50;;;;;;;;4976355;28;46623;-71
2023/06/16 04:53:28;;;;;;;;;12.25;10.25;;;;;;;;4975994;28;45297;-71
2023/06/16 04:55:54;;;;;;;;;11.00;9.50;;;;;;;;4975375;28;45413;-71
2023/06/16 04:58:19;;;;;;;;;14.25;14.25;;;;;;;;4976062;28;45361;-71
2023/06/16 05:00:44;;;;;;;;;16.00;13.50;;;;;;;;4974831;28;48718;-71
2023/06/16 05:03:10;;;;;;;;;17.50;14.00;;;;;;;;4973990;28;45625;-71
2023/06/16 05:05:35;;;;;;;;;11.75;11.50;;;;;;;;4975474;28;45464;-70
2023/06/16 05:08:00;;;;;;;;;12.50;12.50;;;;;;;;4975822;28;45475;-70
2023/06/16 05:10:26;;;;;;;;;15.00;13.25;;;;;;;;4976013;28;46226;-70
2023/06/16 05:12:51;;;;;;;;;13.50;13.50;;;;;;;;4976202;28;45401;-70
2023/06/16 05:15:16;;;;;;;;;16.25;13.75;;;;;;;;4975111;28;45353;-70
2023/06/16 05:17:41;;;;;;;;;14.75;13.75;;;;;;;;4974376;28;45381;-70
2023/06/16 05:20:07;;;;;;;;;15.00;15.00;;;;;;;;4976136;28;46126;-70
2023/06/16 05:22:32;;;;;;;;;11.25;11.25;;;;;;;;4975679;28;45471;-70
2023/06/16 05:24:58;;;;;;;;;12.50;12.25;;;;;;;;4975313;28;45843;-70
2023/06/16 05:27:24;;;;;;;;;15.75;14.50;;;;;;;;4975850;28;45358;-71
2023/06/16 05:29:53;;;;;;;;;11.25;10.75;;;;;;;;4975751;28;46076;-70
2023/06/16 05:32:19;;;;;;;;;14.00;11.25;;;;;;;;4974608;28;45432;-70
2023/06/16 05:34:46;;;;;;;;;15.25;14.50;;;;;;;;4975603;28;45685;-70
2023/06/16 05:37:15;;;;;;;;;15.75;13.75;;;;;;;;4975705;28;45356;-70
2023/06/16 05:39:40;;;;;;;;;12.00;12.00;;;;;;;;4976345;28;45992;-71
2023/06/16 05:42:05;;;;;;;;;13.25;13.25;;;;;;;;4975353;28;45446;-70
2023/06/16 05:44:31;;;;;;;;;15.75;15.75;;;;;;;;4976479;28;45308;-71
2023/06/16 05:46:57;;;;;;;;;19.00;17.50;;;;;;;;4976454;28;45284;-70
2023/06/16 05:49:22;;;;;;;;;12.25;11.00;;;;;;;;4976594;28;47150;-71
2023/06/16 05:51:47;;;;;;;;;14.50;14.50;;;;;;;;4976676;28;45253;-71
2023/06/16 05:54:12;;;;;;;;;14.50;13.50;;;;;;;;4976555;28;45360;-71
2023/06/16 05:56:37;;;;;;;;;12.25;11.25;;;;;;;;4976333;28;45591;-71
2023/06/16 05:59:03;;;;;;;;;12.25;12.00;;;;;;;;4976226;28;45358;-70
2023/06/16 06:01:28;;;;;;;;;18.00;15.75;;;;;;;;4971143;28;46280;-70
2023/06/16 06:03:53;;;;;;;;;15.25;14.25;;;;;;;;4969921;28;45472;-71
2023/06/16 06:06:18;;;;;;;;;12.75;12.75;;;;;;;;4974333;28;45310;-70
2023/06/16 06:08:43;;;;;;;;;15.25;13.00;;;;;;;;4973833;28;45309;-70
2023/06/16 06:11:09;;;;;;;;;17.00;15.00;;;;;;;;4975310;28;45675;-70
2023/06/16 06:13:34;;;;;;;;;16.50;15.25;;;;;;;;4973672;28;45336;-70
2023/06/16 06:16:00;;;;;;;;;12.00;12.00;;;;;;;;4975116;28;45461;-70
2023/06/16 06:18:26;;;;;;;;;13.50;13.00;;;;;;;;4969315;28;45529;-70
2023/06/16 06:20:51;;;;;;;;;17.75;15.25;;;;;;;;4955993;28;45485;-70
2023/06/16 06:23:16;;;;;;;;;13.50;13.50;;;;;;;;4956464;28;45448;-71
2023/06/16 06:25:42;;;;;;;;;14.50;14.50;;;;;;;;4956032;28;45527;-70
2023/06/16 06:28:07;;;;;;;;;15.00;15.00;;;;;;;;4956398;28;46531;-70
2023/06/16 06:30:33;;;;;;;;;16.25;13.25;;;;;;;;4975197;28;45493;-71
2023/06/16 06:32:58;;;;;;;;;15.75;13.25;;;;;;;;4975933;28;45434;-71
2023/06/16 06:35:23;;;;;;;;;15.25;15.00;;;;;;;;4975278;28;45429;-71
2023/06/16 06:37:48;;;;;;;;;18.00;15.00;;;;;;;;4975401;28;45424;-70
2023/06/16 06:40:13;;;;;;;;;17.75;16.75;;;;;;;;4975577;28;45463;-71
2023/06/16 06:42:39;;;;;;;;;11.25;11.25;;;;;;;;4975505;28;45513;-71
2023/06/16 06:45:04;;;;;;;;;17.50;15.00;;;;;;;;4975369;28;45352;-70
2023/06/16 06:47:29;;;;;;;;;12.75;12.00;;;;;;;;4975570;28;47160;-71
2023/06/16 06:49:55;;;;;;;;;15.75;12.50;;;;;;;;4975498;28;45475;-71
2023/06/16 06:52:20;;;;;;;;;14.50;14.50;;;;;;;;4975305;28;45698;-71
2023/06/16 06:54:45;;;;;;;;;7.25;7.25;;;;;;;;4974839;28;45428;-71
2023/06/16 06:57:12;;;;;;;;;13.75;13.75;;;;;;;;4975134;28;46195;-71
2023/06/16 06:59:38;;;;;;;;;15.00;13.25;;;;;;;;4975313;28;45460;-71
2023/06/16 07:02:04;;;;;;;;;16.25;13.50;;;;;;;;4975639;28;45365;-71
2023/06/16 07:04:30;;;;;;;;;16.00;15.00;;;;;;;;4973676;28;45371;-71
2023/06/16 07:06:55;;;;;;;;;15.75;13.75;;;;;;;;4975197;28;45402;-71
2023/06/16 07:09:21;;;;;;;;;14.75;13.50;;;;;;;;4975044;28;45429;-71
2023/06/16 07:11:47;;;;;;;;;14.25;14.25;;;;;;;;4975488;28;45376;-71
2023/06/16 07:14:12;;;;;;;;;12.25;11.50;;;;;;;;4973977;28;45649;-71
2023/06/16 07:16:37;;;;;;;;;12.75;12.00;;;;;;;;4974842;28;46206;-71
2023/06/16 07:19:03;;;;;;;;;14.75;13.75;;;;;;;;4974889;28;45385;-71
2023/06/16 07:21:28;;;;;;;;;12.50;11.50;;;;;;;;4975359;28;45398;-71
2023/06/16 07:23:53;;;;;;;;;8.50;8.25;;;;;;;;4975132;28;45349;-70
2023/06/16 07:26:19;;;;;;;;;14.00;14.00;;;;;;;;4974834;28;47153;-71
2023/06/16 07:28:44;;;;;;;;;10.25;10.25;;;;;;;;4973281;28;45433;-72
2023/06/16 07:31:09;;;;;;;;;17.00;15.75;;;;;;;;4974864;28;45647;-71
2023/06/16 07:33:35;;;;;;;;;13.00;11.25;;;;;;;;4974898;28;45425;-72
2023/06/16 07:36:00;;;;;;;;;15.25;13.00;;;;;;;;4974874;28;46331;-71
2023/06/16 07:38:25;;;;;;;;;17.00;14.75;;;;;;;;4976609;28;45325;-71
2023/06/16 07:40:50;;;;;;;;;15.25;14.50;;;;;;;;4978531;28;45328;-72
2023/06/16 07:43:16;;;;;;;;;20.00;15.00;;;;;;;;4977953;28;45395;-71
2023/06/16 07:45:41;;;;;;;;;14.75;14.75;;;;;;;;4977257;28;45397;-71
2023/06/16 07:48:08;;;;;;;;;17.00;14.75;;;;;;;;4977118;28;45431;-71
2023/06/16 07:50:34;;;;;;;;;10.25;10.25;;;;;;;;4978470;28;45360;-71
2023/06/16 07:53:00;;;;;;;;;13.00;11.50;;;;;;;;4978251;28;45420;-71
2023/06/16 07:55:25;;;;;;;;;11.75;11.75;;;;;;;;4978020;28;46993;-72
2023/06/16 07:57:50;;;;;;;;;13.50;12.25;;;;;;;;4977815;28;45365;-74
2023/06/16 08:00:17;;;;;;;;;16.25;12.75;;;;;;;;4978294;28;45414;-74
2023/06/16 08:02:42;;;;;;;;;12.00;11.50;;;;;;;;4977309;28;45203;-76
2023/06/16 08:05:10;;;;;;;;;15.75;12.50;;;;;;;;4977906;28;45460;-75
2023/06/16 08:07:35;;;;;;;;;11.75;10.50;;;;;;;;4978282;28;45394;-77
2023/06/16 08:10:01;;;;;;;;;14.00;12.50;;;;;;;;4978176;28;45468;-78
2023/06/16 08:12:26;;;;;;;;;14.50;14.50;;;;;;;;4977979;28;45515;-72
2023/06/16 08:14:51;;;;;;;;;16.50;14.00;;;;;;;;4977893;28;46189;-72
2023/06/16 08:17:17;;;;;;;;;16.75;13.75;;;;;;;;4978096;28;45428;-72
2023/06/16 08:19:43;;;;;;;;;18.25;15.75;;;;;;;;4977706;28;45519;-72
2023/06/16 08:22:08;;;;;;;;;12.25;12.25;;;;;;;;4977307;28;45354;-71
2023/06/16 08:24:33;;;;;;;;;16.25;14.00;;;;;;;;4975830;28;47406;-73
2023/06/16 08:26:59;;;;;;;;;15.75;13.75;;;;;;;;4977442;28;45335;-71
2023/06/16 08:29:24;;;;;;;;;12.75;12.25;;;;;;;;4977437;28;45424;-73
2023/06/16 08:31:49;;;;;;;;;12.00;8.25;;;;;;;;4977369;28;45299;-71
2023/06/16 08:34:15;;;;;;;;;10.00;10.00;;;;;;;;4977365;28;45553;-72
2023/06/16 08:36:40;;;;;;;;;12.75;10.00;;;;;;;;4977292;28;45458;-72
2023/06/16 08:39:07;;;;;;;;;15.25;13.50;;;;;;;;4976949;28;45329;-72
2023/06/16 08:41:34;;;;;;;;;14.50;12.75;;;;;;;;4976916;28;45389;-71
2023/06/16 08:44:01;;;;;;;;;11.25;9.75;;;;;;;;4977120;28;46212;-71
2023/06/16 08:46:26;;;;;;;;;12.50;11.00;;;;;;;;4976937;28;45370;-72
2023/06/16 08:48:52;;;;;;;;;11.50;10.00;;;;;;;;4975259;28;45318;-71
2023/06/16 08:51:21;;;;;;;;;10.25;10.25;;;;;;;;4976901;28;45501;-71
2023/06/16 08:53:47;;;;;;;;;10.00;9.25;;;;;;;;4976595;28;45398;-71
2023/06/16 08:56:13;;;;;;;;;9.00;7.50;;;;;;;;4959222;28;45457;-72
2023/06/16 08:58:40;;;;;;;;;12.25;11.25;;;;;;;;4977393;28;45575;-74
2023/06/16 09:01:05;;;;;;;;;9.25;9.25;;;;;;;;4977342;28;45332;-72
2023/06/16 09:03:32;;;;;;;;;7.25;7.25;;;;;;;;4976999;28;45873;-73
2023/06/16 09:05:59;;;;;;;;;7.25;7.00;;;;;;;;4976031;28;45514;-72
2023/06/16 09:08:24;;;;;;;;;9.25;8.25;;;;;;;;4975591;28;45420;-72
2023/06/16 09:10:54;;;;;;;;;8.00;8.00;;;;;;;;4976246;28;45367;-72
2023/06/16 09:13:20;;;;;;;;;6.00;6.00;;;;;;;;4976746;28;47254;-72
2023/06/16 09:15:47;;;;;;;;;7.50;7.50;;;;;;;;4977174;28;45422;-73
2023/06/16 09:18:12;;;;;;;;;7.75;6.75;;;;;;;;4976276;28;45341;-73
2023/06/16 09:20:39;;;;;;;;;9.00;7.75;;;;;;;;4976864;28;45329;-72
2023/06/16 09:23:05;;;;;;;;;8.00;7.00;;;;;;;;4976980;28;46285;-72
2023/06/16 09:25:34;;;;;;;;;6.00;6.00;;;;;;;;4976546;28;45409;-72
2023/06/16 09:28:04;;;;;;;;;5.25;5.25;;;;;;;;4976915;28;45459;-72
2023/06/16 09:30:30;;;;;;;;;8.75;7.75;;;;;;;;4976614;28;45393;-72
2023/06/16 09:32:57;;;;;;;;;8.00;8.00;;;;;;;;4976863;28;46228;-72
2023/06/16 09:35:23;;;;;;;;;7.75;6.75;;;;;;;;4976635;28;45346;-72
2023/06/16 09:37:50;;;;;;;;;7.25;7.25;;;;;;;;4976881;28;45366;-72
2023/06/16 09:40:16;;;;;;;;;7.50;6.25;;;;;;;;4976681;28;45506;-72
2023/06/16 09:42:42;;;;;;;;;6.75;6.75;;;;;;;;4976554;28;47225;-72
2023/06/16 09:45:08;;;;;;;;;5.50;5.50;;;;;;;;4976478;28;45341;-73
2023/06/16 09:47:33;;;;;;;;;7.25;7.25;;;;;;;;4976853;28;45320;-71
2023/06/16 09:49:58;;;;;;;;;8.50;8.50;;;;;;;;4976591;28;45394;-73
2023/06/16 09:52:27;;;;;;;;;6.00;6.00;;;;;;;;4976565;28;47119;-72
2023/06/16 09:54:53;;;;;;;;;6.25;5.25;;;;;;;;4976580;28;45409;-72
2023/06/16 09:57:19;;;;;;;;;7.50;7.00;;;;;;;;4975993;28;45511;-72
2023/06/16 09:59:44;;;;;;;;;8.25;8.25;;;;;;;;4975620;28;45424;-72
2023/06/16 10:02:10;;;;;;;;;7.00;7.00;;;;;;;;4975363;28;45422;-72
2023/06/16 10:04:36;;;;;;;;;8.25;8.25;;;;;;;;4974117;28;45848;-73
2023/06/16 10:07:04;;;;;;;;;6.75;6.75;;;;;;;;4974799;28;45507;-72
2023/06/16 10:09:35;;;;;;;;;9.00;9.00;;;;;;;;4972813;28;45531;-72
2023/06/16 10:12:01;;;;;;;;;7.75;7.00;;;;;;;;4975379;28;45624;-73
2023/06/16 10:14:27;;;;;;;;;7.50;7.50;;;;;;;;4975412;28;45493;-72
2023/06/16 10:16:54;;;;;;;;;9.50;7.25;;;;;;;;4974691;28;45363;-72
2023/06/16 10:19:21;;;;;;;;;6.00;6.00;;;;;;;;4974971;28;45468;-72
2023/06/16 10:21:47;;;;;;;;;6.50;6.50;;;;;;;;4974523;28;45699;-72
2023/06/16 10:24:13;;;;;;;;;7.75;7.75;;;;;;;;4975104;28;45389;-73
2023/06/16 10:26:39;;;;;;;;;7.25;7.25;;;;;;;;4974537;28;45583;-72
2023/06/16 10:29:05;;;;;;;;;8.00;8.00;;;;;;;;4974694;28;45419;-72
2023/06/16 10:31:30;;;;;;;;;7.00;7.00;;;;;;;;4974283;28;45722;-71
2023/06/16 10:33:59;;;;;;;;;6.00;6.00;;;;;;;;4975979;28;45412;-72
2023/06/16 10:36:28;;;;;;;;;7.50;7.50;;;;;;;;4975800;28;45343;-71
2023/06/16 10:39:01;;;;;;;;;8.75;8.75;;;;;;;;4975947;28;45358;-72
2023/06/16 10:41:29;;;;;;;;;7.50;6.25;;;;;;;;4958197;28;46204;-72
2023/06/16 10:43:54;;;;;;;;;9.25;7.25;;;;;;;;4972254;28;45321;-73
2023/06/16 10:46:20;;;;;;;;;8.50;8.50;;;;;;;;4963720;28;45446;-73
2023/06/16 10:48:56;;;;;;;;;9.50;6.75;;;;;;;;4969351;28;45487;-73
2023/06/16 10:51:43;;;;;;;;;9.75;8.25;;;;;;;;4958645;28;46223;-72
2023/06/16 10:54:09;;;;;;;;;9.00;8.00;;;;;;;;4965256;28;45385;-73
2023/06/16 10:56:53;;;;;;;;;7.00;7.00;;;;;;;;4967643;28;45442;-72
2023/06/16 10:59:18;;;;;;;;;8.00;6.75;;;;;;;;4958806;28;45315;-71
2023/06/16 11:01:45;;;;;;;;;7.25;7.25;;;;;;;;4968184;28;45381;-73
2023/06/16 11:04:14;;;;;;;;;7.00;6.25;;;;;;;;4965680;28;45507;-72
2023/06/16 11:06:58;;;;;;;;;9.00;8.00;;;;;;;;4971758;28;45457;-72
2023/06/16 11:09:26;;;;;;;;;6.50;6.50;;;;;;;;4971895;28;45709;-71
2023/06/16 11:11:52;;;;;;;;;8.75;8.00;;;;;;;;4971910;28;47414;-72
2023/06/16 11:14:17;;;;;;;;;6.50;6.50;;;;;;;;4977439;28;45428;-72
2023/06/16 11:16:44;;;;;;;;;8.50;8.50;;;;;;;;4978114;28;45468;-72
2023/06/16 11:19:10;;;;;;;;;11.00;8.50;;;;;;;;4976803;28;45607;-72
2023/06/16 11:21:35;;;;;;;;;6.75;6.50;;;;;;;;4977637;28;46129;-72
2023/06/16 11:24:11;;;;;;;;;7.75;6.00;;;;;;;;4977821;28;45399;-72
2023/06/16 11:26:36;;;;;;;;;8.50;8.50;;;;;;;;4975886;28;45464;-72
2023/06/16 11:29:04;;;;;;;;;11.50;9.25;;;;;;;;4977606;28;45400;-73
2023/06/16 11:31:30;;;;;;;;;9.00;8.00;;;;;;;;4973616;28;46453;-73
2023/06/16 11:33:56;;;;;;;;;8.25;7.25;;;;;;;;4977465;28;45544;-72
2023/06/16 11:36:22;;;;;;;;;9.50;9.50;;;;;;;;4978008;28;45360;-71
2023/06/16 11:38:49;;;;;;;;;9.00;9.00;;;;;;;;4961405;28;45640;-71
2023/06/16 11:41:22;;;;;;;;;10.00;8.75;;;;;;;;4974390;28;45491;-71
2023/06/16 11:43:47;;;;;;;;;9.50;8.75;;;;;;;;4969453;28;45347;-72
2023/06/16 11:46:14;;;;;;;;;8.75;8.75;;;;;;;;4978045;28;45369;-71
2023/06/16 11:48:40;;;;;;;;;10.75;10.75;;;;;;;;4963547;28;45631;-72
2023/06/16 11:51:06;;;;;;;;;7.50;7.50;;;;;;;;4974098;28;47120;-72
2023/06/16 11:53:31;;;;;;;;;9.25;9.25;;;;;;;;4963583;28;45644;-71
2023/06/16 11:55:59;;;;;;;;;11.50;9.00;;;;;;;;4969381;28;45437;-71
2023/06/16 11:58:27;;;;;;;;;6.00;6.00;;;;;;;;4970832;28;45480;-71
2023/06/16 12:00:54;;;;;;;;;10.25;9.25;;;;;;;;4960259;28;46655;-71
2023/06/16 12:03:19;;;;;;;;;10.00;9.00;;;;;;;;4960552;28;45622;-72
2023/06/16 12:05:45;;;;;;;;;11.00;10.00;;;;;;;;4971019;28;45358;-72
2023/06/16 12:08:11;;;;;;;;;11.25;9.25;;;;;;;;4968518;28;45306;-73
2023/06/16 12:10:36;;;;;;;;;10.00;8.50;;;;;;;;4962117;28;45391;-73
2023/06/16 12:13:01;;;;;;;;;11.25;10.75;;;;;;;;4972544;28;45405;-73
2023/06/16 12:15:26;;;;;;;;;11.00;11.00;;;;;;;;4962616;28;45477;-73
2023/06/16 12:17:55;;;;;;;;;5.75;5.75;;;;;;;;4969841;28;45562;-72
2023/06/16 12:20:21;;;;;;;;;9.25;9.00;;;;;;;;4969838;28;45403;-73
2023/06/16 12:22:47;;;;;;;;;11.50;9.00;;;;;;;;4962082;28;45440;-73
2023/06/16 12:25:13;;;;;;;;;9.75;9.00;;;;;;;;4973941;28;45317;-73
2023/06/16 12:27:41;;;;;;;;;8.00;7.00;;;;;;;;4964089;28;45370;-72
2023/06/16 12:30:07;;;;;;;;;9.25;8.75;;;;;;;;4976990;28;45416;-72
2023/06/16 12:32:33;;;;;;;;;9.50;9.00;;;;;;;;4962399;28;45468;-72
2023/06/16 12:34:59;;;;;;;;;7.00;5.50;;;;;;;;4974031;28;45439;-71
2023/06/16 12:37:25;;;;;;;;;8.50;8.50;;;;;;;;4961790;28;45565;-72
2023/06/16 12:39:56;;;;;;;;;9.00;8.50;;;;;;;;4976805;28;46304;-72
2023/06/16 12:42:27;;;;;;;;;8.50;8.50;;;;;;;;4977000;28;45313;-72
2023/06/16 12:44:53;;;;;;;;;8.25;8.25;;;;;;;;4977031;28;45473;-71
2023/06/16 12:47:20;;;;;;;;;9.75;9.50;;;;;;;;4977035;28;45453;-72
2023/06/16 12:49:46;;;;;;;;;11.00;10.75;;;;;;;;4977218;28;47101;-72
2023/06/16 12:52:11;;;;;;;;;8.50;8.50;;;;;;;;4977433;28;45453;-72
2023/06/16 12:54:36;;;;;;;;;8.75;8.75;;;;;;;;4976432;28;45432;-73
2023/06/16 12:57:02;;;;;;;;;7.75;7.75;;;;;;;;4977783;28;45341;-72
2023/06/16 12:59:28;;;;;;;;;10.00;10.00;;;;;;;;4977299;28;46359;-75
2023/06/16 13:01:54;;;;;;;;;11.00;11.00;;;;;;;;4977160;28;45484;-74
2023/06/16 13:04:19;;;;;;;;;9.25;9.25;;;;;;;;4977377;28;45366;-75
2023/06/16 13:06:44;;;;;;;;;11.50;9.75;;;;;;;;4975947;28;45339;-75
2023/06/16 13:09:09;;;;;;;;;12.00;11.00;;;;;;;;4976308;28;46312;-74
2023/06/16 13:11:35;;;;;;;;;10.75;9.50;;;;;;;;4976922;28;45381;-75
2023/06/16 13:14:01;;;;;;;;;11.50;9.00;;;;;;;;4976864;28;45416;-77
2023/06/16 13:16:26;;;;;;;;;10.00;8.25;;;;;;;;4977669;28;45418;-76
2023/06/16 13:18:52;;;;;;;;;10.50;10.50;;;;;;;;4977237;28;45337;-75
2023/06/16 13:21:17;;;;;;;;;8.25;7.25;;;;;;;;4977191;28;45452;-75
2023/06/16 13:23:43;;;;;;;;;8.50;8.50;;;;;;;;4977170;28;45371;-75
2023/06/16 13:26:09;;;;;;;;;10.25;10.25;;;;;;;;4976907;28;45314;-75
2023/06/16 13:28:37;;;;;;;;;10.75;9.25;;;;;;;;4976539;28;46518;-76
2023/06/16 13:31:02;;;;;;;;;11.00;8.75;;;;;;;;4965850;28;45408;-75
2023/06/16 13:33:27;;;;;;;;;10.75;9.50;;;;;;;;4972261;28;45404;-76
2023/06/16 13:35:53;;;;;;;;;8.75;7.75;;;;;;;;4975347;28;45467;-76
2023/06/16 13:38:18;;;;;;;;;12.75;9.50;;;;;;;;4976492;28;46326;-75
2023/06/16 13:40:43;;;;;;;;;7.25;7.00;;;;;;;;4974768;28;45424;-76
2023/06/16 13:43:08;;;;;;;;;10.00;10.00;;;;;;;;4959388;28;46508;-74
2023/06/16 13:45:34;;;;;;;;;9.50;9.00;;;;;;;;4975748;28;45449;-75
2023/06/16 13:47:59;;;;;;;;;9.25;9.25;;;;;;;;4965517;28;47038;-75
2023/06/16 13:50:24;;;;;;;;;8.75;8.75;;;;;;;;4932822;28;46003;-75
2023/06/16 13:52:50;;;;;;;;;7.00;6.00;;;;;;;;4960293;28;45405;-75
2023/06/16 13:55:15;;;;;;;;;9.00;9.00;;;;;;;;4970219;28;45436;-75
2023/06/16 13:57:40;;;;;;;;;9.25;9.25;;;;;;;;4963709;28;45418;-75
2023/06/16 14:00:06;;;;;;;;;9.50;8.25;;;;;;;;4962181;28;45545;-75
2023/06/16 14:02:31;;;;;;;;;9.25;8.00;;;;;;;;4969293;28;45345;-75
2023/06/16 14:04:56;;;;;;;;;11.75;10.25;;;;;;;;4958277;28;45423;-75
2023/06/16 14:07:21;;;;;;;;;10.50;10.00;;;;;;;;4967820;28;46223;-75
2023/06/16 14:09:47;;;;;;;;;10.25;10.25;;;;;;;;4964478;28;45701;-75
2023/06/16 14:12:12;;;;;;;;;9.75;8.50;;;;;;;;4972929;28;45439;-75
2023/06/16 14:14:37;;;;;;;;;12.00;9.50;;;;;;;;4959250;28;45606;-76
2023/06/16 14:17:03;;;;;;;;;8.25;8.25;;;;;;;;4972106;28;45907;-75
2023/06/16 14:19:28;;;;;;;;;9.00;9.00;;;;;;;;4962428;28;45416;-76